Time;durP1;ratioP1;P1;durP2;ratioP2;P2;SDS_P1;SDS_P2;PMS_P1;PMS_P2;Temp;Humidity;BMP_temperature;BMP_pressure;BME280_temperature;BME280_humidity;BME280_pressure;Samples;Min_cycle;Max_cycle;Signal;HPM_P1;HPM_P2
2021/06/11 00:06:01;;;;;;;10.50;9.80;;;18.20;82.70;;;;;;5219204;23;20485;-87
2021/06/11 00:13:42;;;;;;;9.57;9.07;;;;;;;;;;5864086;23;20483;-92
2021/06/11 01:07:56;;;;;;;10.13;9.33;;;17.70;75.90;;;;;;4976722;23;20530;-93
2021/06/11 01:10:22;;;;;;;10.40;9.70;;;18.00;87.10;;;;;;4979078;28;20442;-92
2021/06/11 01:12:50;;;;;;;10.07;9.50;;;17.60;87.30;;;;;;4979363;28;20422;-92
2021/06/11 01:15:21;;;;;;;10.33;9.73;;;17.60;88.40;;;;;;4979423;28;20434;-92
2021/06/11 01:17:47;;;;;;;10.63;10.00;;;17.50;87.70;;;;;;4979671;28;20439;-92
2021/06/11 01:20:14;;;;;;;11.70;10.97;;;17.60;80.50;;;;;;4963321;28;20434;-92
2021/06/11 01:23:07;;;;;;;13.97;12.60;;;17.20;78.40;;;;;;4967013;28;20438;-91
2021/06/11 01:25:53;;;;;;;11.43;10.83;;;17.30;90.70;;;;;;4983437;28;20441;-92
2021/06/11 01:28:25;;;;;;;10.40;9.70;;;17.50;76.40;;;;;;4984141;28;20501;-91
2021/06/11 01:30:53;;;;;;;10.53;9.93;;;19.70;80.20;;;;;;4984001;28;20474;-91
2021/06/11 01:33:25;;;;;;;10.43;9.83;;;17.40;77.90;;;;;;4967471;28;20411;-92
2021/06/11 01:35:59;;;;;;;10.87;10.07;;;17.50;77.40;;;;;;4966532;28;20436;-92
2021/06/11 01:38:35;;;;;;;11.50;10.60;;;19.30;83.30;;;;;;4982504;28;20437;-92
2021/06/11 01:48:48;;;;;;;10.70;10.00;;;17.10;79.30;;;;;;5189347;23;20462;-91
2021/06/11 01:51:18;;;;;;;11.77;11.00;;;17.10;77.90;;;;;;4947418;29;20425;-91
2021/06/11 01:53:44;;;;;;;10.87;10.27;;;;;;;;;;4963672;29;20451;-92
2021/06/11 01:58:46;;;;;;;11.60;10.73;;;17.20;87.60;;;;;;5654898;23;20489;-91
2021/06/11 02:01:17;;;;;;;10.63;9.93;;;17.10;87.90;;;;;;4966221;28;20430;-90
2021/06/11 02:03:44;;;;;;;10.77;10.03;;;16.40;78.40;;;;;;4982578;28;20410;-91
2021/06/11 02:06:19;;;;;;;10.77;9.93;;;17.10;79.80;;;;;;4982748;28;20421;-90
2021/06/11 02:08:47;;;;;;;10.73;10.20;;;19.40;83.70;;;;;;4982064;28;20457;-91
2021/06/11 02:11:13;;;;;;;10.67;9.83;;;;;;;;;;4965589;28;20418;-92
2021/06/11 02:13:44;;;;;;;10.80;10.00;;;17.20;88.30;;;;;;4965985;28;20506;-91
2021/06/11 02:16:13;;;;;;;10.80;10.20;;;16.60;80.60;;;;;;4981998;28;20456;-91
2021/06/11 02:18:40;;;;;;;10.90;10.00;;;;;;;;;;4981969;28;20410;-92
2021/06/11 02:21:09;;;;;;;13.03;12.00;;;17.00;79.80;;;;;;4965586;29;20404;-91
2021/06/11 02:23:35;;;;;;;10.73;10.03;;;18.20;84.40;;;;;;4965495;28;20426;-91
2021/06/11 02:26:04;;;;;;;12.00;11.10;;;16.90;90.30;;;;;;4965207;28;20431;-91
2021/06/11 02:28:31;;;;;;;11.33;10.53;;;;;;;;;;4965816;28;20461;-91
2021/06/11 02:31:00;;;;;;;12.83;11.93;;;16.80;78.70;;;;;;4965443;28;20409;-92
2021/06/11 02:33:27;;;;;;;11.97;11.17;;;16.70;91.60;;;;;;4965574;28;20498;-92
2021/06/11 02:35:56;;;;;;;11.20;10.50;;;16.80;79.70;;;;;;4982597;28;20415;-91
2021/06/11 02:38:25;;;;;;;11.80;11.10;;;;;;;;;;4982150;28;20418;-90
2021/06/11 03:13:51;;;;;;;12.87;11.77;;;16.30;92.50;;;;;;5697390;23;20432;-92
2021/06/11 03:16:19;;;;;;;12.40;11.53;;;16.50;81.70;;;;;;4979265;28;20449;-91
2021/06/11 03:18:52;;;;;;;13.23;11.97;;;18.40;90.10;;;;;;4963900;28;20454;-92
2021/06/11 03:21:23;;;;;;;12.17;11.10;;;18.70;87.80;;;;;;4980005;28;20426;-90
2021/06/11 03:24:09;;;;;;;13.20;12.00;;;16.40;83.00;;;;;;4964689;28;20442;-91
2021/06/11 03:26:46;;;;;;;12.90;11.87;;;16.40;84.00;;;;;;4979184;28;20422;-92
2021/06/11 03:29:18;;;;;;;13.30;12.30;;;16.50;82.80;;;;;;5145806;23;20506;-91
2021/06/11 03:34:43;;;;;;;13.40;12.30;;;16.50;82.90;;;;;;4985259;23;20485;-90
2021/06/11 03:47:42;;;;;;;13.40;12.43;;;16.50;93.80;;;;;;5157750;23;20586;-92
2021/06/11 04:08:19;;;;;;;14.10;12.80;;;16.20;94.10;;;;;;5255301;23;20486;-89
2021/06/11 04:10:52;;;;;;;13.40;12.40;;;18.20;88.10;;;;;;4963610;28;20461;-91
2021/06/11 04:13:27;;;;;;;14.13;13.10;;;16.40;81.30;;;;;;4979551;28;20864;-91
2021/06/11 04:15:57;;;;;;;13.90;12.90;;;16.40;81.50;;;;;;4978025;28;20437;-88
2021/06/11 04:23:34;;;;;;;14.77;13.57;;;;;;;;;;5168807;23;20834;-91
2021/06/11 04:37:17;;;;;;;12.00;11.10;;;16.50;82.00;;;;;;5375636;23;20479;-92
2021/06/11 04:42:18;;;;;;;10.97;10.27;;;;;;;;;;5026241;23;20550;-93
2021/06/11 04:44:45;;;;;;;11.00;10.10;;;18.20;80.50;;;;;;4956165;29;20414;-93
2021/06/11 04:47:15;;;;;;;11.87;11.17;;;17.20;84.90;;;;;;4974413;28;20442;-92
2021/06/11 04:49:41;;;;;;;12.23;11.43;;;;;;;;;;4957243;28;20418;-92
2021/06/11 04:52:07;;;;;;;13.10;12.10;;;;;;;;;;4957672;29;20425;-91
2021/06/11 04:54:44;;;;;;;11.67;10.90;;;18.00;74.20;;;;;;4960242;28;20774;-87
2021/06/11 04:57:10;;;;;;;11.97;11.17;;;;;;;;;;4978178;28;20426;-92
2021/06/11 04:59:36;;;;;;;25.93;12.57;;;18.50;72.10;;;;;;4956022;29;20403;-91
2021/06/11 05:02:03;;;;;;;11.83;10.70;;;;;;;;;;4971418;28;20414;-91
2021/06/11 05:04:29;;;;;;;11.30;10.03;;;18.90;70.50;;;;;;4973170;28;20158;-92
2021/06/11 05:06:55;;;;;;;10.10;9.50;;;19.00;72.60;;;;;;4957122;29;20415;-89
2021/06/11 05:09:21;;;;;;;11.17;10.37;;;;;;;;;;4953232;29;20604;-93
2021/06/11 05:11:48;;;;;;;12.00;11.20;;;17.70;65.80;;;;;;4970057;28;20170;-93
2021/06/11 05:14:14;;;;;;;11.20;10.50;;;23.30;74.20;;;;;;4953122;29;20438;-90
2021/06/11 05:16:39;;;;;;;10.00;9.40;;;22.20;71.90;;;;;;4969729;28;20418;-93
2021/06/11 05:19:05;;;;;;;11.10;10.07;;;;;;;;;;4964007;28;20410;-91
2021/06/11 05:21:32;;;;;;;11.90;10.93;;;20.60;64.40;;;;;;4949106;29;20171;-90
2021/06/11 05:23:58;;;;;;;12.77;11.63;;;21.20;71.00;;;;;;4946524;29;20510;-92
2021/06/11 05:26:24;;;;;;;14.13;10.27;;;21.60;64.00;;;;;;4965103;28;20501;-90
2021/06/11 05:28:50;;;;;;;12.63;11.17;;;;;;;;;;4946417;29;20497;-91
2021/06/11 05:31:16;;;;;;;11.90;11.00;;;21.80;60.50;;;;;;4965808;28;20181;-92
2021/06/11 05:33:42;;;;;;;12.73;11.70;;;23.40;65.50;;;;;;4949490;29;20422;-87
2021/06/11 05:36:08;;;;;;;13.53;10.97;;;20.90;59.80;;;;;;4965994;28;20414;-92
2021/06/11 05:38:36;;;;;;;12.53;11.23;;;22.80;59.00;;;;;;4947745;29;20708;-89
2021/06/11 05:41:02;;;;;;;12.40;11.50;;;25.20;66.00;;;;;;4965589;28;20175;-92
2021/06/11 05:43:30;;;;;;;14.50;13.20;;;22.90;59.00;;;;;;4964842;28;20506;-92
2021/06/11 05:45:57;;;;;;;12.50;11.50;;;24.50;61.30;;;;;;4960546;28;20413;-90
2021/06/11 05:48:25;;;;;;;12.77;11.57;;;23.20;58.40;;;;;;4963135;28;20492;-93
2021/06/11 05:50:50;;;;;;;16.20;14.80;;;23.10;59.70;;;;;;4930974;29;20450;-90
2021/06/11 05:53:22;;;;;;;13.13;12.07;;;;;;;;;;4944786;29;20423;-88
2021/06/11 05:55:49;;;;;;;15.90;14.53;;;23.80;56.90;;;;;;4942657;29;20171;-92
2021/06/11 05:58:35;;;;;;;15.23;12.60;;;24.00;57.30;;;;;;4962135;28;20418;-93
2021/06/11 06:01:03;;;;;;;13.80;12.57;;;25.20;57.60;;;;;;4608659;29;10001491;-88
2021/06/11 06:03:29;;;;;;;13.83;12.50;;;23.80;55.50;;;;;;4952290;29;20466;-92
2021/06/11 06:05:55;;;;;;;15.30;12.90;;;;;;;;;;4949949;28;20439;-92
2021/06/11 06:08:21;;;;;;;16.77;13.80;;;25.20;54.80;;;;;;4958657;29;20558;-91
2021/06/11 06:10:47;;;;;;;15.50;14.30;;;27.30;55.90;;;;;;4964409;28;20423;-89
2021/06/11 06:13:12;;;;;;;16.23;14.90;;;23.00;53.00;;;;;;4963540;28;20186;-91
2021/06/11 06:15:46;;;;;;;15.57;14.20;;;26.30;54.70;;;;;;4954821;28;20257;-90
2021/06/11 06:18:12;;;;;;;15.03;13.70;;;25.80;54.00;;;;;;4957512;28;20274;-90
2021/06/11 06:20:38;;;;;;;16.17;14.67;;;28.20;54.10;;;;;;4959136;28;20926;-91
2021/06/11 06:23:04;;;;;;;16.57;15.20;;;29.00;54.20;;;;;;4939187;29;20521;-90
2021/06/11 06:25:30;;;;;;;15.87;14.63;;;28.00;54.70;;;;;;4958359;28;20450;-89
2021/06/11 06:27:56;;;;;;;15.73;14.13;;;26.20;52.90;;;;;;4957870;28;20206;-89
2021/06/11 06:30:23;;;;;;;15.33;14.03;;;25.20;51.90;;;;;;4956821;28;20461;-88
2021/06/11 06:32:48;;;;;;;15.17;14.03;;;26.70;51.60;;;;;;4956812;28;20174;-89
2021/06/11 06:35:17;;;;;;;14.83;13.63;;;28.10;51.90;;;;;;4938255;29;20430;-89
2021/06/11 06:37:43;;;;;;;16.13;14.53;;;29.40;52.70;;;;;;4956540;28;20182;-89
2021/06/11 06:40:09;;;;;;;16.07;14.77;;;28.80;51.70;;;;;;4940171;28;20938;-89
2021/06/11 06:42:35;;;;;;;15.77;14.57;;;27.60;50.20;;;;;;4956933;29;20258;-89
2021/06/11 06:45:02;;;;;;;15.67;14.40;;;27.90;48.70;;;;;;4956359;28;20450;-90
2021/06/11 06:47:28;;;;;;;16.07;14.97;;;28.20;48.60;;;;;;4937773;29;20422;-90
2021/06/11 06:49:53;;;;;;;16.20;14.80;;;28.30;48.50;;;;;;4956105;29;20429;-90
2021/06/11 06:52:19;;;;;;;15.37;14.00;;;28.00;48.40;;;;;;4955079;28;20294;-90
2021/06/11 06:54:45;;;;;;;15.30;14.00;;;28.50;47.70;;;;;;4956004;28;20167;-90
2021/06/11 06:57:11;;;;;;;15.23;14.10;;;28.50;47.70;;;;;;4938893;29;20258;-90
2021/06/11 06:59:40;;;;;;;16.30;14.80;;;28.70;47.80;;;;;;4620410;28;10000049;-91
2021/06/11 07:02:05;;;;;;;15.63;14.27;;;30.60;48.00;;;;;;4969775;28;20179;-90
2021/06/11 07:04:32;;;;;;;15.17;13.97;;;30.40;48.60;;;;;;4955470;29;21009;-92
2021/06/11 07:06:57;;;;;;;15.17;14.00;;;28.90;46.80;;;;;;4941490;29;20175;-90
2021/06/11 07:09:23;;;;;;;16.07;14.70;;;30.50;47.60;;;;;;4954136;28;20877;-91
2021/06/11 07:11:49;;;;;;;15.93;14.40;;;29.40;46.20;;;;;;4939444;29;20194;-90
2021/06/11 07:14:16;;;;;;;17.13;15.50;;;29.30;47.20;;;;;;4939020;29;20175;-89
2021/06/11 07:16:42;;;;;;;18.17;16.33;;;30.50;45.50;;;;;;4939630;29;20441;-90
2021/06/11 07:19:09;;;;;;;15.17;13.77;;;31.00;44.40;;;;;;4955301;28;20505;-89
2021/06/11 07:21:34;;;;;;;16.93;15.33;;;30.00;44.50;;;;;;4941610;29;20759;-89
2021/06/11 07:24:00;;;;;;;18.37;15.80;;;30.00;45.30;;;;;;4941721;28;20670;-93
2021/06/11 07:26:29;;;;;;;16.77;15.30;;;29.70;45.00;;;;;;4944540;29;20234;-92
2021/06/11 07:28:54;;;;;;;15.67;14.27;;;30.50;44.50;;;;;;4956851;29;20210;-89
2021/06/11 07:31:20;;;;;;;16.63;15.23;;;31.20;44.40;;;;;;4972080;28;20435;-89
2021/06/11 07:33:46;;;;;;;15.87;14.57;;;31.90;43.80;;;;;;4952233;29;20616;-91
2021/06/11 07:36:15;;;;;;;15.17;13.70;;;32.70;43.40;;;;;;4952011;29;20503;-91
2021/06/11 07:38:40;;;;;;;14.77;13.57;;;31.60;43.50;;;;;;4944270;29;20585;-90
2021/06/11 07:41:06;;;;;;;14.47;13.17;;;31.70;42.60;;;;;;4961065;28;20438;-90
2021/06/11 07:43:31;;;;;;;15.23;14.00;;;32.60;41.10;;;;;;4945120;29;20584;-90
2021/06/11 07:45:57;;;;;;;15.00;13.73;;;32.10;40.20;;;;;;4941567;29;20186;-86
2021/06/11 07:48:23;;;;;;;13.70;12.50;;;31.70;39.80;;;;;;4942765;29;20277;-87
2021/06/11 07:50:49;;;;;;;13.10;12.10;;;34.50;41.40;;;;;;4960365;28;20419;-88
2021/06/11 07:53:14;;;;;;;13.67;12.57;;;32.70;39.70;;;;;;4942560;28;20180;-88
2021/06/11 07:55:40;;;;;;;14.80;13.80;;;32.60;38.90;;;;;;4957867;29;20517;-88
2021/06/11 07:58:12;;;;;;;12.33;11.43;;;32.30;39.10;;;;;;4960759;29;20171;-88
2021/06/11 08:00:37;;;;;;;12.80;11.70;;;33.10;38.90;;;;;;4961487;28;20434;-90
2021/06/11 08:03:05;;;;;;;12.30;11.17;;;33.70;39.50;;;;;;4943234;29;20944;-90
2021/06/11 08:05:31;;;;;;;12.70;11.73;;;34.00;39.60;;;;;;4944743;28;20607;-91
2021/06/11 08:07:56;;;;;;;12.33;11.37;;;33.50;38.50;;;;;;4959365;28;20470;-91
2021/06/11 08:10:23;;;;;;;14.53;13.40;;;36.10;39.10;;;;;;4958830;28;20167;-91
2021/06/11 08:12:49;;;;;;;12.83;11.53;;;32.50;37.60;;;;;;4959424;28;20178;-89
2021/06/11 08:15:15;;;;;;;13.63;12.53;;;33.70;39.50;;;;;;4942526;29;20941;-90
2021/06/11 08:17:40;;;;;;;13.20;12.20;;;33.50;39.20;;;;;;4960851;28;20450;-91
2021/06/11 08:20:08;;;;;;;13.50;12.43;;;33.30;39.10;;;;;;4957901;28;20182;-90
2021/06/11 08:22:36;;;;;;;13.63;12.33;;;33.30;38.10;;;;;;4958244;28;20549;-91
2021/06/11 08:25:03;;;;;;;12.13;11.13;;;32.80;38.80;;;;;;4958944;29;20960;-92
2021/06/11 08:27:29;;;;;;;9.83;9.33;;;32.40;39.70;;;;;;4961430;28;20893;-90
2021/06/11 08:29:55;;;;;;;9.73;9.10;;;32.30;38.60;;;;;;4959551;28;20418;-89
2021/06/11 08:32:20;;;;;;;11.10;10.20;;;33.00;37.80;;;;;;4958002;28;20171;-90
2021/06/11 08:34:46;;;;;;;13.00;11.70;;;32.30;37.30;;;;;;4958063;28;20221;-91
2021/06/11 08:37:11;;;;;;;10.17;9.33;;;32.50;37.90;;;;;;4958628;28;20177;-90
2021/06/11 08:39:37;;;;;;;11.20;10.50;;;32.10;38.70;;;;;;4959524;28;20175;-90
2021/06/11 08:42:06;;;;;;;10.03;9.27;;;32.70;39.50;;;;;;4956801;28;20218;-89
2021/06/11 08:44:33;;;;;;;11.03;10.13;;;32.10;38.50;;;;;;4957880;28;20188;-90
2021/06/11 08:46:58;;;;;;;13.60;12.60;;;31.90;38.40;;;;;;4957660;28;20934;-90
2021/06/11 08:49:24;;;;;;;16.53;14.83;;;31.80;38.70;;;;;;4952173;28;20462;-88
2021/06/11 08:51:59;;;;;;;18.10;13.73;;;31.90;39.50;;;;;;4937842;29;20195;-90
2021/06/11 08:54:26;;;;;;;15.20;14.10;;;32.80;38.30;;;;;;4955711;29;20421;-90
2021/06/11 08:56:53;;;;;;;14.27;13.17;;;32.80;37.50;;;;;;4957322;28;20414;-90
2021/06/11 08:59:19;;;;;;;14.50;13.40;;;33.70;37.60;;;;;;4941541;29;20470;-89
2021/06/11 09:01:45;;;;;;;13.30;12.30;;;32.20;36.40;;;;;;4612935;28;9999975;-90
2021/06/11 09:04:11;;;;;;;12.40;11.50;;;33.10;38.20;;;;;;4955689;28;20645;-89
2021/06/11 09:06:37;;;;;;;13.43;12.33;;;34.20;38.10;;;;;;4939078;29;20193;-90
2021/06/11 09:09:05;;;;;;;14.43;13.60;;;33.40;37.70;;;;;;4939668;29;20541;-89
2021/06/11 09:11:32;;;;;;;15.30;14.00;;;33.10;37.10;;;;;;4955157;28;20444;-89
2021/06/11 09:14:12;;;;;;;12.90;12.10;;;33.00;36.10;;;;;;4937458;29;20441;-91
2021/06/11 09:16:49;;;;;;;14.57;13.57;;;34.30;36.80;;;;;;4955636;28;20429;-90
2021/06/11 09:19:19;;;;;;;17.93;16.53;;;34.10;35.70;;;;;;4956419;28;20929;-89
2021/06/11 09:21:50;;;;;;;14.53;13.50;;;34.20;35.90;;;;;;4953152;28;20427;-87
2021/06/11 09:24:24;;;;;;;15.53;14.30;;;34.30;36.10;;;;;;4983619;23;20769;-91
2021/06/11 09:29:30;;;;;;;15.70;14.70;;;33.00;37.50;;;;;;4937355;29;20483;-91
2021/06/11 09:32:18;;;;;;;14.87;13.93;;;32.90;37.80;;;;;;4935962;29;20396;-94
2021/06/11 09:35:05;;;;;;;14.57;13.47;;;36.30;37.30;;;;;;4934006;29;20455;-89
2021/06/11 09:37:34;;;;;;;14.60;13.60;;;34.00;36.90;;;;;;4918769;29;20419;-91
2021/06/11 09:40:09;;;;;;;15.80;14.77;;;32.80;37.50;;;;;;4918284;29;20412;-92
2021/06/11 09:42:39;;;;;;;15.40;14.40;;;33.50;37.30;;;;;;4955152;29;20454;-91
2021/06/11 09:45:13;;;;;;;15.30;14.10;;;34.20;36.10;;;;;;4922021;29;20487;-91
2021/06/11 09:47:53;;;;;;;14.67;13.57;;;34.40;36.30;;;;;;4934609;29;20475;-93
2021/06/11 09:50:26;;;;;;;12.63;11.73;;;34.90;35.70;;;;;;4931761;29;20448;-92
2021/06/11 09:52:55;;;;;;;14.77;13.37;;;34.80;35.60;;;;;;4913803;29;20415;-90
2021/06/11 09:55:28;;;;;;;12.63;11.83;;;35.00;36.90;;;;;;4933054;29;20422;-92
2021/06/11 09:58:17;;;;;;;15.23;14.13;;;34.50;35.80;;;;;;4931783;29;20427;-90
2021/06/11 10:00:46;;;;;;;13.20;12.40;;;34.30;35.80;;;;;;4922284;29;20446;-92
2021/06/11 10:03:15;;;;;;;14.90;13.97;;;34.50;36.90;;;;;;4931296;29;20451;-94
2021/06/11 10:05:42;;;;;;;15.10;14.10;;;34.90;35.90;;;;;;4935900;29;20816;-93
2021/06/11 10:08:09;;;;;;;15.10;13.90;;;35.20;35.80;;;;;;4929688;29;20459;-88
2021/06/11 10:10:36;;;;;;;18.17;16.67;;;34.00;36.10;;;;;;4923122;29;20422;-89
2021/06/11 10:13:04;;;;;;;19.07;17.87;;;33.80;36.90;;;;;;4940699;29;20406;-92
2021/06/11 10:15:31;;;;;;;18.07;16.77;;;34.20;36.40;;;;;;4924241;29;20466;-87
2021/06/11 10:18:02;;;;;;;14.37;13.53;;;34.70;35.40;;;;;;4601065;29;9999635;-87
2021/06/11 10:20:27;;;;;;;15.27;14.20;;;35.70;34.90;;;;;;4923000;29;20295;-89
2021/06/11 10:22:53;;;;;;;14.93;14.03;;;35.70;34.80;;;;;;4921671;29;20450;-87
2021/06/11 10:25:23;;;;;;;17.00;16.00;;;34.50;35.20;;;;;;4942117;29;20217;-87
2021/06/11 10:27:50;;;;;;;14.93;14.03;;;34.70;35.90;;;;;;4927219;29;20542;-82
2021/06/11 10:30:16;;;;;;;16.80;15.83;;;34.40;36.70;;;;;;4942387;29;20474;-88
2021/06/11 10:32:48;;;;;;;15.47;14.53;;;33.70;36.20;;;;;;4925232;29;20427;-89
2021/06/11 10:35:43;;;;;;;15.07;14.27;;;34.50;35.50;;;;;;4942321;29;20424;-88
2021/06/11 10:38:32;;;;;;;13.83;13.13;;;37.00;35.10;;;;;;4942191;29;20415;-87
2021/06/11 10:41:07;;;;;;;12.33;11.73;;;36.30;33.40;;;;;;4947975;29;20545;-90
2021/06/11 10:43:37;;;;;;;14.47;13.67;;;36.30;34.10;;;;;;4953340;29;20430;-89
2021/06/11 10:46:31;;;;;;;12.03;11.37;;;36.60;32.70;;;;;;4936929;29;20426;-89
2021/06/11 10:49:11;;;;;;;10.93;10.23;;;37.90;32.80;;;;;;5037145;23;20482;-91
2021/06/11 10:51:44;;;;;;;14.30;13.53;;;37.20;32.90;;;;;;4973087;28;20418;-91
2021/06/11 10:54:20;;;;;;;13.27;12.53;;;37.00;32.30;;;;;;4974102;28;20477;-90
2021/06/11 10:57:09;;;;;;;11.70;10.80;;;38.00;33.80;;;;;;4975016;28;20430;-92
2021/06/11 10:59:38;;;;;;;11.70;11.10;;;36.40;34.20;;;;;;4959370;28;20515;-88
2021/06/11 11:02:07;;;;;;;11.37;10.80;;;36.60;32.50;;;;;;4929718;29;20438;-90
2021/06/11 11:04:36;;;;;;;11.97;11.17;;;36.00;32.40;;;;;;4962709;28;20422;-92
2021/06/11 11:07:20;;;;;;;13.70;12.83;;;36.60;32.80;;;;;;4948794;28;20446;-90
2021/06/11 11:09:55;;;;;;;14.47;13.67;;;36.70;32.70;;;;;;4951856;29;20472;-92
2021/06/11 11:12:27;;;;;;;11.37;10.77;;;37.10;32.20;;;;;;4957293;28;20446;-92
2021/06/11 11:14:57;;;;;;;12.23;11.30;;;38.00;32.80;;;;;;4975401;28;20425;-90
2021/06/11 11:17:24;;;;;;;12.23;11.60;;;36.80;32.50;;;;;;4955304;29;20426;-87
2021/06/11 11:20:07;;;;;;;15.17;14.03;;;35.70;33.30;;;;;;4956982;29;20920;-90
2021/06/11 11:22:39;;;;;;;17.20;15.87;;;35.20;33.30;;;;;;4961242;28;20503;-92
2021/06/11 11:25:14;;;;;;;15.70;14.50;;;33.70;34.50;;;;;;4962274;28;20410;-90
2021/06/11 11:27:46;;;;;;;15.80;14.80;;;34.20;34.60;;;;;;5147438;23;21562;-88
2021/06/11 11:30:12;;;;;;;15.60;14.90;;;36.00;34.60;;;;;;4908626;29;20468;-88
2021/06/11 11:32:38;;;;;;;11.90;11.30;;;34.40;35.00;;;;;;4901517;29;20417;-86
2021/06/11 11:35:04;;;;;;;10.93;10.27;;;34.70;33.80;;;;;;4900668;29;20763;-87
2021/06/11 11:37:30;;;;;;;9.50;9.00;;;35.30;33.80;;;;;;4912397;29;20242;-86
2021/06/11 11:39:56;;;;;;;11.40;10.63;;;35.80;32.90;;;;;;4937071;29;20415;-87
2021/06/11 11:42:46;;;;;;;7.40;7.10;;;35.90;32.80;;;;;;4946454;29;20827;-91
2021/06/11 11:45:15;;;;;;;7.97;7.30;;;36.20;34.80;;;;;;4940611;29;20178;-89
2021/06/11 11:47:42;;;;;;;9.30;8.70;;;34.80;32.90;;;;;;4955304;29;20392;-91
2021/06/11 11:50:11;;;;;;;7.37;6.97;;;35.40;33.70;;;;;;4936762;29;20481;-88
2021/06/11 11:52:42;;;;;;;8.87;8.17;;;35.10;33.40;;;;;;4934554;29;20484;-90
2021/06/11 11:55:08;;;;;;;7.10;6.50;;;35.60;34.80;;;;;;4933935;29;20427;-92
2021/06/11 11:57:35;;;;;;;8.03;7.60;;;36.50;33.30;;;;;;4951138;29;20459;-90
2021/06/11 12:00:05;;;;;;;8.77;8.23;;;38.20;33.60;;;;;;4937413;29;20530;-90
2021/06/11 12:05:20;;;;;;;6.57;6.10;;;37.20;31.70;;;;;;4926468;29;20485;-91
2021/06/11 12:07:46;;;;;;;7.43;7.13;;;37.60;31.20;;;;;;4913638;29;20456;-91
2021/06/11 12:10:20;;;;;;;7.20;6.80;;;36.50;34.00;;;;;;4896133;29;20497;-89
2021/06/11 12:12:50;;;;;;;9.17;8.60;;;34.80;35.20;;;;;;4912640;29;20281;-90
2021/06/11 12:15:17;;;;;;;9.63;8.83;;;34.60;36.70;;;;;;4921765;29;20450;-93
2021/06/11 12:17:46;;;;;;;8.97;8.13;;;35.10;34.20;;;;;;4932392;29;20422;-92
2021/06/11 12:20:12;;;;;;;8.30;7.70;;;35.50;33.70;;;;;;4934351;29;20430;-91
2021/06/11 12:22:41;;;;;;;8.30;7.70;;;36.90;32.50;;;;;;4946016;29;20893;-87
2021/06/11 12:25:09;;;;;;;8.60;7.90;;;38.10;34.10;;;;;;4950105;29;20515;-91
2021/06/11 12:27:35;;;;;;;9.00;8.13;;;35.10;33.90;;;;;;4950023;29;20728;-87
2021/06/11 12:30:01;;;;;;;7.87;7.40;;;35.70;34.20;;;;;;4951224;29;20445;-91
2021/06/11 12:32:33;;;;;;;6.30;6.00;;;37.40;33.70;;;;;;4950499;29;20187;-89
2021/06/11 12:35:01;;;;;;;6.43;6.13;;;36.70;32.80;;;;;;4946396;29;20201;-93
2021/06/11 12:37:30;;;;;;;6.90;6.60;;;36.90;32.30;;;;;;4930487;29;20535;-94
2021/06/11 12:40:01;;;;;;;6.63;6.23;;;36.90;32.30;;;;;;4929399;29;20459;-92
2021/06/11 12:42:32;;;;;;;7.07;6.77;;;35.40;33.20;;;;;;4936676;29;20419;-87
2021/06/11 12:44:58;;;;;;;7.03;6.63;;;35.50;32.70;;;;;;4913222;29;20489;-84
2021/06/11 12:47:24;;;;;;;6.50;6.30;;;35.60;32.90;;;;;;4898394;29;20428;-89
2021/06/11 12:49:57;;;;;;;6.47;6.27;;;36.10;32.20;;;;;;4932262;29;20232;-92
2021/06/11 12:52:50;;;;;;;6.63;6.23;;;36.70;31.60;;;;;;4925844;29;20224;-91
2021/06/11 12:55:23;;;;;;;6.97;6.67;;;36.20;31.50;;;;;;4916161;29;20471;-89
2021/06/11 12:57:49;;;;;;;7.07;6.47;;;35.60;33.40;;;;;;4909578;29;20474;-89
2021/06/11 13:00:17;;;;;;;7.00;6.67;;;36.30;31.90;;;;;;4928451;29;20811;-90
2021/06/11 13:02:43;;;;;;;6.33;6.13;;;38.10;33.60;;;;;;4925231;29;20179;-88
2021/06/11 13:05:09;;;;;;;7.10;6.60;;;36.60;32.50;;;;;;4920138;29;20475;-88
2021/06/11 13:07:35;;;;;;;7.03;6.43;;;36.80;31.20;;;;;;4923490;29;20203;-90
2021/06/11 13:10:02;;;;;;;5.67;5.47;;;37.10;31.20;;;;;;4935142;29;20440;-91
2021/06/11 13:12:30;;;;;;;4.83;4.63;;;35.60;30.50;;;;;;4919653;29;20652;-90
2021/06/11 13:14:58;;;;;;;5.63;5.20;;;36.80;31.30;;;;;;4921381;29;20440;-89
2021/06/11 13:17:24;;;;;;;6.37;6.10;;;35.50;32.40;;;;;;4937949;29;20595;-88
2021/06/11 13:19:49;;;;;;;6.37;5.83;;;35.60;33.20;;;;;;4924262;29;20435;-89
2021/06/11 13:22:15;;;;;;;5.73;5.43;;;36.00;32.60;;;;;;4922842;29;20179;-87
2021/06/11 13:24:40;;;;;;;5.03;4.83;;;36.00;31.70;;;;;;4934725;29;20665;-87
2021/06/11 13:27:06;;;;;;;5.17;4.80;;;36.90;31.00;;;;;;4956964;29;20536;-88
2021/06/11 13:29:32;;;;;;;7.00;6.50;;;37.50;30.10;;;;;;4960011;29;20248;-88
2021/06/11 13:31:58;;;;;;;3.40;3.30;;;37.80;30.00;;;;;;4946291;29;20426;-87
2021/06/11 13:34:24;;;;;;;3.80;3.63;;;37.60;29.70;;;;;;4942680;29;20640;-90
2021/06/11 13:36:49;;;;;;;7.50;3.63;;;37.60;29.80;;;;;;4948509;29;20181;-88
2021/06/11 13:39:15;;;;;;;4.87;4.43;;;37.90;30.00;;;;;;4929752;29;20182;-89
2021/06/11 13:41:41;;;;;;;4.07;3.87;;;36.80;29.60;;;;;;4959907;28;20198;-87
2021/06/11 13:44:07;;;;;;;5.00;4.60;;;36.20;31.00;;;;;;4945302;29;20643;-88
2021/06/11 13:46:32;;;;;;;5.40;4.67;;;35.30;31.40;;;;;;4963854;28;20414;-88
2021/06/11 13:48:58;;;;;;;4.30;4.23;;;32.00;32.30;;;;;;4944920;29;20304;-87
2021/06/11 13:51:24;;;;;;;4.87;4.60;;;34.50;33.90;;;;;;4962531;28;20174;-89
2021/06/11 13:53:51;;;;;;;5.07;4.67;;;36.60;33.50;;;;;;4932342;29;20182;-87
2021/06/11 13:56:17;;;;;;;4.83;4.63;;;35.10;32.80;;;;;;4934775;29;20644;-88
2021/06/11 13:58:47;;;;;;;4.60;4.40;;;36.60;32.30;;;;;;4968317;28;20434;-91
2021/06/11 14:01:20;;;;;;;5.20;5.07;;;34.60;32.20;;;;;;4938134;28;20525;-92
2021/06/11 14:03:50;;;;;;;4.20;4.10;;;34.00;32.10;;;;;;4941975;29;20487;-87
2021/06/11 14:06:26;;;;;;;4.97;4.50;;;34.10;33.80;;;;;;4930269;29;20439;-90
2021/06/11 14:08:51;;;;;;;4.07;3.87;;;36.20;35.20;;;;;;4927457;29;20482;-89
2021/06/11 14:11:17;;;;;;;3.50;3.40;;;36.00;35.10;;;;;;4928272;29;20420;-89
2021/06/11 14:13:46;;;;;;;4.43;4.33;;;34.40;34.60;;;;;;4927514;29;20196;-93
2021/06/11 14:16:11;;;;;;;3.80;3.60;;;34.50;35.70;;;;;;4924840;29;20200;-91
2021/06/11 14:18:42;;;;;;;4.50;4.37;;;32.60;35.30;;;;;;4927457;29;20424;-90
2021/06/11 14:21:08;;;;;;;3.77;3.67;;;33.40;33.20;;;;;;4927849;29;20176;-94
2021/06/11 14:23:34;;;;;;;4.23;3.83;;;32.40;34.00;;;;;;4930714;29;20416;-92
2021/06/11 14:26:00;;;;;;;3.60;3.50;;;34.50;34.80;;;;;;4931870;29;20432;-90
2021/06/11 14:28:32;;;;;;;4.73;4.03;;;36.30;34.10;;;;;;4930812;29;20828;-91
2021/06/11 14:30:58;;;;;;;3.97;3.77;;;36.50;35.10;;;;;;4917771;29;20483;-90
2021/06/11 14:33:23;;;;;;;4.50;4.20;;;33.20;34.80;;;;;;4924317;29;20420;-86
2021/06/11 14:35:50;;;;;;;4.07;3.97;;;33.20;33.50;;;;;;4920453;29;20199;-86
2021/06/11 14:38:16;;;;;;;4.73;4.53;;;33.60;33.10;;;;;;4919108;29;20180;-86
2021/06/11 14:40:42;;;;;;;4.80;4.60;;;33.70;33.30;;;;;;4919190;29;20417;-87
2021/06/11 14:43:07;;;;;;;4.23;4.03;;;33.10;33.60;;;;;;4918897;29;20547;-85
2021/06/11 14:45:34;;;;;;;4.20;4.00;;;33.70;35.10;;;;;;4918998;29;20602;-87
2021/06/11 14:47:59;;;;;;;3.83;3.73;;;31.90;34.60;;;;;;4919456;29;20468;-87
2021/06/11 14:50:25;;;;;;;3.70;3.60;;;32.50;34.60;;;;;;4918737;29;20841;-86
2021/06/11 14:52:54;;;;;;;6.67;3.53;;;32.40;34.50;;;;;;4919442;29;20254;-86
2021/06/11 14:55:21;;;;;;;6.33;4.80;;;31.20;34.70;;;;;;4918975;29;20448;-87
2021/06/11 14:57:47;;;;;;;5.23;4.93;;;31.70;35.90;;;;;;4919442;29;20757;-84
2021/06/11 15:00:15;;;;;;;4.63;4.33;;;32.70;36.80;;;;;;4919402;29;20423;-88
2021/06/11 15:02:41;;;;;;;3.67;3.57;;;31.10;35.90;;;;;;4578142;29;10000256;-87
2021/06/11 15:05:08;;;;;;;4.13;3.83;;;30.70;36.20;;;;;;4916495;29;20223;-86
2021/06/11 15:07:34;;;;;;;3.87;3.67;;;30.50;36.80;;;;;;4915942;29;20749;-87
2021/06/11 15:10:00;;;;;;;4.53;4.10;;;30.40;37.20;;;;;;4916481;29;20417;-87
2021/06/11 15:12:25;;;;;;;3.67;3.60;;;28.50;36.70;;;;;;4916840;29;20184;-86
2021/06/11 15:14:51;;;;;;;3.90;3.60;;;30.30;37.50;;;;;;4899240;29;20335;-86
2021/06/11 15:17:18;;;;;;;3.10;3.10;;;29.60;37.10;;;;;;4919131;29;20187;-87
2021/06/11 15:19:47;;;;;;;3.60;3.40;;;30.40;37.40;;;;;;4919848;29;20416;-84
2021/06/11 15:22:14;;;;;;;3.43;3.30;;;30.50;37.50;;;;;;4921840;29;20431;-86
2021/06/11 15:24:40;;;;;;;3.57;3.47;;;31.20;38.30;;;;;;4907961;29;20425;-85
2021/06/11 15:27:06;;;;;;;4.03;3.80;;;30.50;37.90;;;;;;4927294;29;20511;-86